Terminal Aerodrome Forecast
Issued by NWS

Current Version | Previous Version | Text Only | Print | Product List | Glossary On
Versions: 1 2 3 4 5 6 7 8 9 10 11 12 13
000
FTUS45 KGJT 200520
TAFASE
TAF
KASE 200520Z 2006/2106 21009KT P6SM FEW150
     FM201400 35004KT P6SM FEW200
     FM202000 34008KT P6SM BKN140
     FM202300 24012G18KT P6SM BKN140
     FM210200 18005KT P6SM BKN100=

USA.gov is the U.S. government's official web portal to all federal, state and local government web resources and services.